<?xml version="1.0" encoding="UTF-8" standalone="no" ?><gpx xmlns="http://www.topografix.com/GPX/1/1" xmlns:gpxx="http://www.garmin.com/xmlschemas/GpxExtensions/v3" xmlns:wptx1="http://www.garmin.com/xmlschemas/WaypointExtension/v1" xmlns:gpxtpx="http://www.garmin.com/xmlschemas/TrackPointExtension/v1" creator="GuideVTT.com" version="1.1" xmlns:xsi="http://www.w3.org/2001/XMLSchema-instance" xsi:schemaLocation="http://www.topografix.com/GPX/1/1 http://www.topografix.com/GPX/1/1/gpx.xsd http://www.garmin.com/xmlschemas/GpxExtensions/v3 http://www8.garmin.com/xmlschemas/GpxExtensionsv3.xsd http://www.garmin.com/xmlschemas/WaypointExtension/v1 http://www8.garmin.com/xmlschemas/WaypointExtensionv1.xsd http://www.garmin.com/xmlschemas/TrackPointExtension/v1 http://www.garmin.com/xmlschemas/TrackPointExtensionv1.xsd">
<metadata><link href="http://www.garmin.com"><text>Garmin International</text></link><time>2013-06-22T15:13:50Z</time></metadata>
<trk><name>rp_sortie16.gpx</name><extensions><gpxx:TrackExtension><gpxx:DisplayColor>Cyan</gpxx:DisplayColor></gpxx:TrackExtension></extensions><trkseg>
<trkpt lat="47.41409540" lon="7.07474470"><ele>440.421265</ele><time>2006-06-29T15:23:35Z</time></trkpt>
<trkpt lat="47.41405249" lon="7.07437992"><ele>444.74707</ele><time>2006-06-29T15:24:00Z</time></trkpt>
<trkpt lat="47.41390228" lon="7.07420826"><ele>444.74707</ele><time>2006-06-29T15:24:05Z</time></trkpt>
<trkpt lat="47.41325855" lon="7.07429409"><ele>445.708374</ele><time>2006-06-29T15:24:20Z</time></trkpt>
<trkpt lat="47.41250753" lon="7.07427263"><ele>447.630981</ele><time>2006-06-29T15:24:36Z</time></trkpt>
<trkpt lat="47.41227150" lon="7.07420826"><ele>447.630981</ele><time>2006-06-29T15:24:41Z</time></trkpt>
<trkpt lat="47.41124153" lon="7.07369328"><ele>449.072998</ele><time>2006-06-29T15:25:03Z</time></trkpt>
<trkpt lat="47.41053343" lon="7.07345724"><ele>451.957031</ele><time>2006-06-29T15:25:21Z</time></trkpt>
<trkpt lat="47.41008282" lon="7.07302809"><ele>454.360229</ele><time>2006-06-29T15:25:39Z</time></trkpt>
<trkpt lat="47.40984678" lon="7.07234144"><ele>458.205566</ele><time>2006-06-29T15:25:55Z</time></trkpt>
<trkpt lat="47.40956783" lon="7.07191229"><ele>457.724976</ele><time>2006-06-29T15:26:06Z</time></trkpt>
<trkpt lat="47.40905285" lon="7.07133293"><ele>457.724976</ele><time>2006-06-29T15:26:26Z</time></trkpt>
<trkpt lat="47.40825891" lon="7.07028151"><ele>461.089478</ele><time>2006-06-29T15:26:56Z</time></trkpt>
<trkpt lat="47.40755081" lon="7.06942320"><ele>465.415527</ele><time>2006-06-29T15:27:24Z</time></trkpt>
<trkpt lat="47.40628481" lon="7.06774950"><ele>467.338135</ele><time>2006-06-29T15:28:35Z</time></trkpt>
<trkpt lat="47.40585566" lon="7.06734180"><ele>480.315918</ele><time>2006-06-29T15:28:40Z</time></trkpt>
<trkpt lat="47.40465403" lon="7.06736326"><ele>488.967773</ele><time>2006-06-29T15:29:06Z</time></trkpt>
<trkpt lat="47.40276575" lon="7.06680536"><ele>488.487183</ele><time>2006-06-29T15:29:40Z</time></trkpt>
<trkpt lat="47.40244389" lon="7.06648350"><ele>489.448364</ele><time>2006-06-29T15:29:50Z</time></trkpt>
<trkpt lat="47.40214348" lon="7.06648350"><ele>488.00647</ele><time>2006-06-29T15:29:59Z</time></trkpt>
<trkpt lat="47.40192890" lon="7.06631184"><ele>488.00647</ele><time>2006-06-29T15:30:07Z</time></trkpt>
<trkpt lat="47.40156412" lon="7.06577539"><ele>487.525635</ele><time>2006-06-29T15:30:23Z</time></trkpt>
<trkpt lat="47.40102768" lon="7.06515312"><ele>489.929077</ele><time>2006-06-29T15:30:41Z</time></trkpt>
<trkpt lat="47.40040541" lon="7.06459522"><ele>492.812988</ele><time>2006-06-29T15:31:01Z</time></trkpt>
<trkpt lat="47.39974022" lon="7.06410170"><ele>492.332397</ele><time>2006-06-29T15:31:21Z</time></trkpt>
<trkpt lat="47.39954710" lon="7.06390858"><ele>491.851685</ele><time>2006-06-29T15:31:25Z</time></trkpt>
<trkpt lat="47.39931107" lon="7.06388712"><ele>491.851685</ele><time>2006-06-29T15:31:30Z</time></trkpt>
<trkpt lat="47.39909649" lon="7.06446648"><ele>492.332397</ele><time>2006-06-29T15:31:46Z</time></trkpt>
<trkpt lat="47.39903212" lon="7.06536770"><ele>492.332397</ele><time>2006-06-29T15:32:02Z</time></trkpt>
<trkpt lat="47.39892483" lon="7.06551790"><ele>491.851685</ele><time>2006-06-29T15:32:05Z</time></trkpt>
<trkpt lat="47.39813089" lon="7.06568956"><ele>490.40979</ele><time>2006-06-29T15:32:18Z</time></trkpt>
<trkpt lat="47.39800215" lon="7.06601143"><ele>491.370972</ele><time>2006-06-29T15:32:23Z</time></trkpt>
<trkpt lat="47.39836693" lon="7.06661224"><ele>490.40979</ele><time>2006-06-29T15:32:30Z</time></trkpt>
<trkpt lat="47.39849567" lon="7.06708431"><ele>488.487183</ele><time>2006-06-29T15:32:34Z</time></trkpt>
<trkpt lat="47.39886045" lon="7.06918716"><ele>479.835083</ele><time>2006-06-29T15:32:49Z</time></trkpt>
<trkpt lat="47.39920378" lon="7.07077503"><ele>474.547974</ele><time>2006-06-29T15:33:01Z</time></trkpt>
<trkpt lat="47.39905357" lon="7.07103252"><ele>475.028687</ele><time>2006-06-29T15:33:06Z</time></trkpt>
<trkpt lat="47.39641428" lon="7.07105398"><ele>491.370972</ele><time>2006-06-29T15:34:25Z</time></trkpt>
<trkpt lat="47.39564180" lon="7.07079649"><ele>492.332397</ele><time>2006-06-29T15:34:44Z</time></trkpt>
<trkpt lat="47.39506245" lon="7.07071066"><ele>491.370972</ele><time>2006-06-29T15:34:55Z</time></trkpt>
<trkpt lat="47.39403248" lon="7.07045317"><ele>490.40979</ele><time>2006-06-29T15:35:12Z</time></trkpt>
<trkpt lat="47.39377499" lon="7.07028151"><ele>488.967773</ele><time>2006-06-29T15:35:16Z</time></trkpt>
<trkpt lat="47.39345312" lon="7.07038879"><ele>485.603027</ele><time>2006-06-29T15:35:22Z</time></trkpt>
<trkpt lat="47.39347458" lon="7.07058191"><ele>484.641846</ele><time>2006-06-29T15:35:24Z</time></trkpt>
<trkpt lat="47.39334583" lon="7.07086086"><ele>482.719238</ele><time>2006-06-29T15:35:29Z</time></trkpt>
<trkpt lat="47.39328146" lon="7.07077503"><ele>483.68042</ele><time>2006-06-29T15:35:31Z</time></trkpt>
<trkpt lat="47.39223003" lon="7.07021713"><ele>490.40979</ele><time>2006-06-29T15:36:00Z</time></trkpt>
<trkpt lat="47.39162922" lon="7.06976652"><ele>493.774292</ele><time>2006-06-29T15:36:17Z</time></trkpt>
<trkpt lat="47.39132881" lon="7.06925154"><ele>496.177734</ele><time>2006-06-29T15:36:30Z</time></trkpt>
<trkpt lat="47.39066362" lon="7.06783533"><ele>503.387451</ele><time>2006-06-29T15:37:05Z</time></trkpt>
<trkpt lat="47.39044905" lon="7.06686974"><ele>506.752075</ele><time>2006-06-29T15:37:22Z</time></trkpt>
<trkpt lat="47.39032030" lon="7.06607580"><ele>508.674683</ele><time>2006-06-29T15:37:36Z</time></trkpt>
<trkpt lat="47.38969803" lon="7.06457376"><ele>514.442627</ele><time>2006-06-29T15:38:08Z</time></trkpt>
<trkpt lat="47.38946199" lon="7.06423044"><ele>516.845947</ele><time>2006-06-29T15:38:20Z</time></trkpt>
<trkpt lat="47.38877535" lon="7.06302881"><ele>524.536499</ele><time>2006-06-29T15:39:01Z</time></trkpt>
<trkpt lat="47.38841057" lon="7.06253529"><ele>527.42041</ele><time>2006-06-29T15:39:19Z</time></trkpt>
<trkpt lat="47.38813162" lon="7.06210613"><ele>530.304443</ele><time>2006-06-29T15:39:34Z</time></trkpt>
<trkpt lat="47.38765955" lon="7.06129074"><ele>535.591553</ele><time>2006-06-29T15:40:05Z</time></trkpt>
<trkpt lat="47.38680124" lon="7.06019640"><ele>531.746338</ele><time>2006-06-29T15:40:51Z</time></trkpt>
<trkpt lat="47.38660812" lon="7.05961704"><ele>539.43689</ele><time>2006-06-29T15:41:08Z</time></trkpt>
<trkpt lat="47.38639355" lon="7.05933809"><ele>543.282104</ele><time>2006-06-29T15:41:21Z</time></trkpt>
<trkpt lat="47.38559961" lon="7.05897331"><ele>551.453369</ele><time>2006-06-29T15:42:02Z</time></trkpt>
<trkpt lat="47.38514900" lon="7.05903769"><ele>556.26001</ele><time>2006-06-29T15:42:34Z</time></trkpt>
<trkpt lat="47.38459110" lon="7.05946684"><ele>559.144043</ele><time>2006-06-29T15:43:15Z</time></trkpt>
<trkpt lat="47.38433361" lon="7.05935955"><ele>559.144043</ele><time>2006-06-29T15:43:39Z</time></trkpt>
<trkpt lat="47.38422632" lon="7.05901623"><ele>559.144043</ele><time>2006-06-29T15:44:01Z</time></trkpt>
<trkpt lat="47.38424778" lon="7.05880165"><ele>559.144043</ele><time>2006-06-29T15:44:09Z</time></trkpt>
<trkpt lat="47.38448381" lon="7.05790043"><ele>559.624756</ele><time>2006-06-29T15:44:36Z</time></trkpt>
<trkpt lat="47.38448381" lon="7.05738544"><ele>562.028076</ele><time>2006-06-29T15:44:52Z</time></trkpt>
<trkpt lat="47.38437653" lon="7.05702066"><ele>569.237793</ele><time>2006-06-29T15:45:07Z</time></trkpt>
<trkpt lat="47.38422632" lon="7.05691338"><ele>579.331543</ele><time>2006-06-29T15:45:22Z</time></trkpt>
<trkpt lat="47.38394737" lon="7.05695629"><ele>583.657471</ele><time>2006-06-29T15:45:40Z</time></trkpt>
<trkpt lat="47.38371134" lon="7.05719233"><ele>584.618896</ele><time>2006-06-29T15:46:00Z</time></trkpt>
<trkpt lat="47.38332510" lon="7.05738544"><ele>584.618896</ele><time>2006-06-29T15:46:26Z</time></trkpt>
<trkpt lat="47.38319635" lon="7.05721378"><ele>584.618896</ele><time>2006-06-29T15:46:40Z</time></trkpt>
<trkpt lat="47.38330364" lon="7.05674171"><ele>590.867432</ele><time>2006-06-29T15:46:56Z</time></trkpt>
<trkpt lat="47.38332510" lon="7.05626965"><ele>594.712646</ele><time>2006-06-29T15:47:11Z</time></trkpt>
<trkpt lat="47.38326073" lon="7.05575466"><ele>600</ele><time>2006-06-29T15:47:29Z</time></trkpt>
<trkpt lat="47.38306761" lon="7.05562592"><ele>606.248535</ele><time>2006-06-29T15:47:42Z</time></trkpt>
<trkpt lat="47.38285303" lon="7.05575466"><ele>614.419678</ele><time>2006-06-29T15:47:57Z</time></trkpt>
<trkpt lat="47.38259554" lon="7.05605507"><ele>620.668457</ele><time>2006-06-29T15:48:12Z</time></trkpt>
<trkpt lat="47.38231659" lon="7.05629110"><ele>622.110352</ele><time>2006-06-29T15:48:28Z</time></trkpt>
<trkpt lat="47.38201618" lon="7.05639839"><ele>624.994385</ele><time>2006-06-29T15:48:43Z</time></trkpt>
<trkpt lat="47.38182306" lon="7.05637693"><ele>631.24292</ele><time>2006-06-29T15:48:58Z</time></trkpt>
<trkpt lat="47.38165140" lon="7.05646276"><ele>634.607422</ele><time>2006-06-29T15:49:16Z</time></trkpt>
<trkpt lat="47.38107204" lon="7.05641985"><ele>638.933594</ele><time>2006-06-29T15:49:56Z</time></trkpt>
<trkpt lat="47.38010645" lon="7.05607653"><ele>638.452881</ele><time>2006-06-29T15:50:44Z</time></trkpt>
<trkpt lat="47.37974167" lon="7.05558300"><ele>640.375488</ele><time>2006-06-29T15:50:58Z</time></trkpt>
<trkpt lat="47.37952709" lon="7.05498219"><ele>642.298096</ele><time>2006-06-29T15:51:11Z</time></trkpt>
<trkpt lat="47.37811089" lon="7.05515385"><ele>642.298096</ele><time>2006-06-29T15:51:38Z</time></trkpt>
<trkpt lat="47.37785339" lon="7.05573320"><ele>642.298096</ele><time>2006-06-29T15:51:45Z</time></trkpt>
<trkpt lat="47.37770319" lon="7.05682755"><ele>644.701172</ele><time>2006-06-29T15:52:02Z</time></trkpt>
<trkpt lat="47.37766027" lon="7.05736399"><ele>648.546387</ele><time>2006-06-29T15:52:16Z</time></trkpt>
<trkpt lat="47.37770319" lon="7.05792189"><ele>650.949707</ele><time>2006-06-29T15:52:34Z</time></trkpt>
<trkpt lat="47.37770319" lon="7.05865145"><ele>655.756592</ele><time>2006-06-29T15:52:59Z</time></trkpt>
<trkpt lat="47.37763882" lon="7.05987453"><ele>656.237061</ele><time>2006-06-29T15:53:38Z</time></trkpt>
<trkpt lat="47.37766027" lon="7.06088305"><ele>662.966309</ele><time>2006-06-29T15:54:13Z</time></trkpt>
<trkpt lat="47.37759590" lon="7.06135511"><ele>664.888916</ele><time>2006-06-29T15:54:33Z</time></trkpt>
<trkpt lat="47.37746716" lon="7.06302881"><ele>677.38623</ele><time>2006-06-29T15:55:49Z</time></trkpt>
<trkpt lat="47.37757444" lon="7.06343651"><ele>683.153809</ele><time>2006-06-29T15:56:07Z</time></trkpt>
<trkpt lat="47.37753153" lon="7.06444502"><ele>684.596191</ele><time>2006-06-29T15:56:51Z</time></trkpt>
<trkpt lat="47.37735987" lon="7.06474543"><ele>688.922119</ele><time>2006-06-29T15:57:12Z</time></trkpt>
<trkpt lat="47.37654448" lon="7.06438065"><ele>705.264404</ele><time>2006-06-29T15:58:05Z</time></trkpt>
<trkpt lat="47.37607241" lon="7.06425190"><ele>706.706299</ele><time>2006-06-29T15:58:38Z</time></trkpt>
<trkpt lat="47.37585783" lon="7.06412315"><ele>710.070801</ele><time>2006-06-29T15:58:55Z</time></trkpt>
<trkpt lat="47.37566471" lon="7.06375837"><ele>711.512939</ele><time>2006-06-29T15:59:18Z</time></trkpt>
<trkpt lat="47.37568617" lon="7.06335068"><ele>711.512939</ele><time>2006-06-29T15:59:40Z</time></trkpt>
<trkpt lat="47.37557888" lon="7.06290007"><ele>711.993652</ele><time>2006-06-29T16:00:01Z</time></trkpt>
<trkpt lat="47.37557888" lon="7.06270695"><ele>713.435547</ele><time>2006-06-29T16:00:09Z</time></trkpt>
<trkpt lat="47.37551451" lon="7.06236362"><ele>712.474121</ele><time>2006-06-29T16:00:25Z</time></trkpt>
<trkpt lat="47.37540722" lon="7.06202030"><ele>712.954834</ele><time>2006-06-29T16:00:43Z</time></trkpt>
<trkpt lat="47.37534285" lon="7.06163406"><ele>714.877441</ele><time>2006-06-29T16:01:01Z</time></trkpt>
<trkpt lat="47.37521410" lon="7.06118345"><ele>715.838867</ele><time>2006-06-29T16:01:22Z</time></trkpt>
<trkpt lat="47.37514973" lon="7.06073284"><ele>719.203613</ele><time>2006-06-29T16:01:45Z</time></trkpt>
<trkpt lat="47.37504244" lon="7.06036806"><ele>725.932617</ele><time>2006-06-29T16:02:04Z</time></trkpt>
<trkpt lat="47.37478495" lon="7.06006765"><ele>725.451904</ele><time>2006-06-29T16:02:25Z</time></trkpt>
<trkpt lat="47.37461329" lon="7.05968142"><ele>724.490723</ele><time>2006-06-29T16:02:46Z</time></trkpt>
<trkpt lat="47.37442017" lon="7.05832958"><ele>736.507324</ele><time>2006-06-29T16:03:44Z</time></trkpt>
<trkpt lat="47.37431288" lon="7.05790043"><ele>739.871826</ele><time>2006-06-29T16:04:09Z</time></trkpt>
<trkpt lat="47.37431288" lon="7.05770731"><ele>741.794434</ele><time>2006-06-29T16:04:24Z</time></trkpt>
<trkpt lat="47.37414122" lon="7.05734253"><ele>742.755859</ele><time>2006-06-29T16:04:46Z</time></trkpt>
<trkpt lat="47.37411976" lon="7.05719233"><ele>747.562256</ele><time>2006-06-29T16:04:55Z</time></trkpt>
<trkpt lat="47.37399101" lon="7.05682755"><ele>753.811035</ele><time>2006-06-29T16:05:20Z</time></trkpt>
<trkpt lat="47.37392664" lon="7.05635548"><ele>760.059326</ele><time>2006-06-29T16:05:44Z</time></trkpt>
<trkpt lat="47.37375498" lon="7.05581903"><ele>762.943359</ele><time>2006-06-29T16:06:08Z</time></trkpt>
<trkpt lat="47.37366915" lon="7.05541134"><ele>766.308105</ele><time>2006-06-29T16:06:29Z</time></trkpt>
<trkpt lat="47.37315416" lon="7.05384493"><ele>779.285645</ele><time>2006-06-29T16:07:33Z</time></trkpt>
<trkpt lat="47.37321854" lon="7.05330849"><ele>780.247314</ele><time>2006-06-29T16:07:55Z</time></trkpt>
<trkpt lat="47.37351894" lon="7.05275059"><ele>779.766357</ele><time>2006-06-29T16:08:19Z</time></trkpt>
<trkpt lat="47.37366915" lon="7.05225706"><ele>782.169922</ele><time>2006-06-29T16:08:31Z</time></trkpt>
<trkpt lat="47.37386227" lon="7.05054045"><ele>782.650635</ele><time>2006-06-29T16:09:02Z</time></trkpt>
<trkpt lat="47.37401247" lon="7.04987526"><ele>783.131104</ele><time>2006-06-29T16:09:14Z</time></trkpt>
<trkpt lat="47.37411976" lon="7.04918861"><ele>783.131104</ele><time>2006-06-29T16:09:26Z</time></trkpt>
<trkpt lat="47.37418413" lon="7.04908133"><ele>783.611816</ele><time>2006-06-29T16:09:29Z</time></trkpt>
<trkpt lat="47.37418413" lon="7.04895258"><ele>783.611816</ele><time>2006-06-29T16:09:31Z</time></trkpt>
<trkpt lat="47.37504244" lon="7.04910278"><ele>783.611816</ele><time>2006-06-29T16:09:42Z</time></trkpt>
<trkpt lat="47.37431288" lon="7.04818010"><ele>783.611816</ele><time>2006-06-29T16:09:47Z</time></trkpt>
<trkpt lat="47.37431288" lon="7.04764366"><ele>784.092529</ele><time>2006-06-29T16:10:05Z</time></trkpt>
<trkpt lat="47.37414122" lon="7.04676390"><ele>782.650635</ele><time>2006-06-29T16:10:26Z</time></trkpt>
<trkpt lat="47.37403393" lon="7.04648495"><ele>782.169922</ele><time>2006-06-29T16:10:37Z</time></trkpt>
<trkpt lat="47.37409830" lon="7.04639912"><ele>782.169922</ele><time>2006-06-29T16:10:41Z</time></trkpt>
<trkpt lat="47.37409830" lon="7.04588413"><ele>783.131104</ele><time>2006-06-29T16:10:55Z</time></trkpt>
<trkpt lat="47.37364769" lon="7.04474688"><ele>783.131104</ele><time>2006-06-29T16:11:25Z</time></trkpt>
<trkpt lat="47.37384081" lon="7.04440355"><ele>783.611816</ele><time>2006-06-29T16:11:39Z</time></trkpt>
<trkpt lat="47.37388372" lon="7.04438210"><ele>783.611816</ele><time>2006-06-29T16:11:41Z</time></trkpt>
<trkpt lat="47.37401247" lon="7.04395294"><ele>784.092529</ele><time>2006-06-29T16:11:55Z</time></trkpt>
<trkpt lat="47.37405539" lon="7.04315901"><ele>784.573242</ele><time>2006-06-29T16:12:18Z</time></trkpt>
<trkpt lat="47.37403393" lon="7.04281569"><ele>784.573242</ele><time>2006-06-29T16:12:30Z</time></trkpt>
<trkpt lat="47.37323999" lon="7.04204321"><ele>784.573242</ele><time>2006-06-29T16:12:38Z</time></trkpt>
<trkpt lat="47.37319708" lon="7.04163551"><ele>784.573242</ele><time>2006-06-29T16:12:47Z</time></trkpt>
<trkpt lat="47.37386227" lon="7.04094887"><ele>785.053955</ele><time>2006-06-29T16:13:00Z</time></trkpt>
<trkpt lat="47.37405539" lon="7.04077721"><ele>786.49585</ele><time>2006-06-29T16:13:17Z</time></trkpt>
<trkpt lat="47.37399101" lon="7.04004765"><ele>790.341064</ele><time>2006-06-29T16:13:35Z</time></trkpt>
<trkpt lat="47.37373352" lon="7.03858852"><ele>792.744385</ele><time>2006-06-29T16:14:15Z</time></trkpt>
<trkpt lat="47.37377644" lon="7.03783751"><ele>803.318848</ele><time>2006-06-29T16:14:34Z</time></trkpt>
<trkpt lat="47.37384081" lon="7.03730106"><ele>811.009277</ele><time>2006-06-29T16:14:50Z</time></trkpt>
<trkpt lat="47.37369061" lon="7.03697920"><ele>812.451416</ele><time>2006-06-29T16:15:05Z</time></trkpt>
<trkpt lat="47.37360477" lon="7.03702211"><ele>812.932129</ele><time>2006-06-29T16:15:14Z</time></trkpt>
<trkpt lat="47.37351894" lon="7.03715086"><ele>815.816162</ele><time>2006-06-29T16:15:24Z</time></trkpt>
<trkpt lat="47.37351894" lon="7.03811646"><ele>830.23584</ele><time>2006-06-29T16:16:07Z</time></trkpt>
<trkpt lat="47.37332582" lon="7.03901768"><ele>831.677734</ele><time>2006-06-29T16:16:43Z</time></trkpt>
<trkpt lat="47.37332582" lon="7.03925371"><ele>838.887695</ele><time>2006-06-29T16:16:54Z</time></trkpt>
<trkpt lat="47.37285376" lon="7.04028368"><ele>842.252197</ele><time>2006-06-29T16:17:38Z</time></trkpt>
<trkpt lat="47.37212420" lon="7.04148531"><ele>842.252197</ele><time>2006-06-29T16:18:31Z</time></trkpt>
<trkpt lat="47.37180233" lon="7.04410315"><ele>842.73291</ele><time>2006-06-29T16:18:48Z</time></trkpt>
<trkpt lat="47.37150192" lon="7.04556227"><ele>845.13623</ele><time>2006-06-29T16:19:20Z</time></trkpt>
<trkpt lat="47.37173796" lon="7.04815865"><ele>845.13623</ele><time>2006-06-29T16:19:25Z</time></trkpt>
<trkpt lat="47.37214565" lon="7.05084085"><ele>845.616943</ele><time>2006-06-29T16:19:48Z</time></trkpt>
<trkpt lat="47.37251043" lon="7.05270767"><ele>878.301758</ele><time>2006-06-29T16:20:10Z</time></trkpt>
<trkpt lat="47.37023592" lon="7.05150604"><ele>882.146973</ele><time>2006-06-29T16:20:13Z</time></trkpt>
<trkpt lat="47.37015009" lon="7.05137730"><ele>877.821045</ele><time>2006-06-29T16:20:16Z</time></trkpt>
<trkpt lat="47.37047195" lon="7.05124855"><ele>877.821045</ele><time>2006-06-29T16:20:23Z</time></trkpt>
<trkpt lat="47.36957073" lon="7.04796553"><ele>882.627686</ele><time>2006-06-29T16:21:03Z</time></trkpt>
<trkpt lat="47.36991405" lon="7.04693556"><ele>882.627686</ele><time>2006-06-29T16:21:06Z</time></trkpt>
<trkpt lat="47.36976385" lon="7.04669952"><ele>879.743652</ele><time>2006-06-29T16:21:08Z</time></trkpt>
<trkpt lat="47.36948490" lon="7.04581976"><ele>870.130371</ele><time>2006-06-29T16:21:17Z</time></trkpt>
<trkpt lat="47.36847639" lon="7.04122782"><ele>862.439941</ele><time>2006-06-29T16:22:13Z</time></trkpt>
<trkpt lat="47.36836910" lon="7.04006910"><ele>860.036621</ele><time>2006-06-29T16:22:16Z</time></trkpt>
<trkpt lat="47.36821890" lon="7.03944683"><ele>858.594482</ele><time>2006-06-29T16:22:22Z</time></trkpt>
<trkpt lat="47.36763954" lon="7.03751564"><ele>854.749268</ele><time>2006-06-29T16:22:46Z</time></trkpt>
<trkpt lat="47.36721039" lon="7.03577757"><ele>850.423584</ele><time>2006-06-29T16:23:06Z</time></trkpt>
<trkpt lat="47.36678123" lon="7.03453302"><ele>847.058838</ele><time>2006-06-29T16:23:22Z</time></trkpt>
<trkpt lat="47.36628771" lon="7.03333139"><ele>844.175049</ele><time>2006-06-29T16:23:39Z</time></trkpt>
<trkpt lat="47.36536503" lon="7.03127146"><ele>841.290771</ele><time>2006-06-29T16:24:13Z</time></trkpt>
<trkpt lat="47.36521482" lon="7.03043461"><ele>838.887695</ele><time>2006-06-29T16:24:24Z</time></trkpt>
<trkpt lat="47.36506462" lon="7.02936172"><ele>837.92627</ele><time>2006-06-29T16:24:40Z</time></trkpt>
<trkpt lat="47.36493587" lon="7.02762365"><ele>835.04248</ele><time>2006-06-29T16:25:02Z</time></trkpt>
<trkpt lat="47.36472130" lon="7.02719450"><ele>834.081055</ele><time>2006-06-29T16:25:08Z</time></trkpt>
<trkpt lat="47.36450672" lon="7.02695847"><ele>833.600342</ele><time>2006-06-29T16:25:13Z</time></trkpt>
<trkpt lat="47.36416340" lon="7.02667952"><ele>832.158447</ele><time>2006-06-29T16:25:20Z</time></trkpt>
<trkpt lat="47.36405611" lon="7.02633619"><ele>831.677734</ele><time>2006-06-29T16:25:25Z</time></trkpt>
<trkpt lat="47.36390591" lon="7.02335358"><ele>833.119629</ele><time>2006-06-29T16:26:10Z</time></trkpt>
<trkpt lat="47.36379862" lon="7.02273130"><ele>836.964844</ele><time>2006-06-29T16:26:23Z</time></trkpt>
<trkpt lat="47.36369133" lon="7.02247381"><ele>839.368164</ele><time>2006-06-29T16:26:34Z</time></trkpt>
<trkpt lat="47.36379862" lon="7.02243090"><ele>838.887695</ele><time>2006-06-29T16:26:40Z</time></trkpt>
<trkpt lat="47.36390591" lon="7.02232361"><ele>839.368164</ele><time>2006-06-29T16:26:45Z</time></trkpt>
<trkpt lat="47.36390591" lon="7.02176571"><ele>840.32959</ele><time>2006-06-29T16:26:57Z</time></trkpt>
<trkpt lat="47.36409903" lon="7.02090740"><ele>838.887695</ele><time>2006-06-29T16:27:20Z</time></trkpt>
<trkpt lat="47.36442089" lon="7.01998472"><ele>843.213379</ele><time>2006-06-29T16:27:48Z</time></trkpt>
<trkpt lat="47.36459255" lon="7.01959848"><ele>846.578369</ele><time>2006-06-29T16:28:01Z</time></trkpt>
<trkpt lat="47.36463547" lon="7.01934099"><ele>845.13623</ele><time>2006-06-29T16:28:16Z</time></trkpt>
<trkpt lat="47.36472130" lon="7.01936245"><ele>868.207764</ele><time>2006-06-29T16:29:41Z</time></trkpt>
<trkpt lat="47.36469984" lon="7.01775312"><ele>868.207764</ele><time>2006-06-29T16:30:05Z</time></trkpt>
<trkpt lat="47.36463547" lon="7.01601505"><ele>863.881836</ele><time>2006-06-29T16:30:30Z</time></trkpt>
<trkpt lat="47.36420631" lon="7.01073647"><ele>860.036621</ele><time>2006-06-29T16:31:09Z</time></trkpt>
<trkpt lat="47.36435652" lon="7.00998545"><ele>859.555908</ele><time>2006-06-29T16:31:16Z</time></trkpt>
<trkpt lat="47.36465693" lon="7.00923443"><ele>858.594482</ele><time>2006-06-29T16:31:23Z</time></trkpt>
<trkpt lat="47.36467838" lon="7.00820446"><ele>853.788086</ele><time>2006-06-29T16:31:30Z</time></trkpt>
<trkpt lat="47.36437798" lon="7.00756073"><ele>846.097656</ele><time>2006-06-29T16:31:35Z</time></trkpt>
<trkpt lat="47.36409903" lon="7.00659513"><ele>839.848877</ele><time>2006-06-29T16:31:42Z</time></trkpt>
<trkpt lat="47.36317635" lon="7.00462103"><ele>836.484375</ele><time>2006-06-29T16:31:57Z</time></trkpt>
<trkpt lat="47.36195326" lon="7.00153112"><ele>836.003662</ele><time>2006-06-29T16:32:20Z</time></trkpt>
<trkpt lat="47.36188889" lon="7.00127363"><ele>834.081055</ele><time>2006-06-29T16:32:22Z</time></trkpt>
<trkpt lat="47.36193180" lon="7.00110197"><ele>833.119629</ele><time>2006-06-29T16:32:24Z</time></trkpt>
<trkpt lat="47.36210346" lon="7.00086594"><ele>833.119629</ele><time>2006-06-29T16:32:28Z</time></trkpt>
<trkpt lat="47.36251116" lon="7.00050116"><ele>833.119629</ele><time>2006-06-29T16:32:36Z</time></trkpt>
<trkpt lat="47.36255407" lon="7.00039387"><ele>832.63916</ele><time>2006-06-29T16:32:38Z</time></trkpt>
<trkpt lat="47.36231804" lon="6.99912786"><ele>832.63916</ele><time>2006-06-29T16:32:54Z</time></trkpt>
<trkpt lat="47.36221075" lon="6.99887037"><ele>832.63916</ele><time>2006-06-29T16:32:56Z</time></trkpt>
<trkpt lat="47.36206055" lon="6.99861288"><ele>832.63916</ele><time>2006-06-29T16:32:58Z</time></trkpt>
<trkpt lat="47.36092329" lon="6.99704647"><ele>830.23584</ele><time>2006-06-29T16:33:09Z</time></trkpt>
<trkpt lat="47.36019373" lon="6.99578047"><ele>830.23584</ele><time>2006-06-29T16:33:23Z</time></trkpt>
<trkpt lat="47.36021519" lon="6.99475050"><ele>825.428955</ele><time>2006-06-29T16:33:30Z</time></trkpt>
<trkpt lat="47.35993624" lon="6.99432135"><ele>824.467773</ele><time>2006-06-29T16:33:35Z</time></trkpt>
<trkpt lat="47.35942125" lon="6.99200392"><ele>823.506592</ele><time>2006-06-29T16:34:01Z</time></trkpt>
<trkpt lat="47.35942125" lon="6.99215412"><ele>823.506592</ele><time>2006-06-29T16:34:07Z</time></trkpt>
<trkpt lat="47.35944271" lon="6.99211121"><ele>822.545166</ele><time>2006-06-29T16:34:11Z</time></trkpt>
<trkpt lat="47.35948563" lon="6.99063063"><ele>820.141846</ele><time>2006-06-29T16:34:54Z</time></trkpt>
<trkpt lat="47.35959291" lon="6.98994398"><ele>816.296631</ele><time>2006-06-29T16:35:17Z</time></trkpt>
<trkpt lat="47.35982895" lon="6.98930025"><ele>814.374023</ele><time>2006-06-29T16:35:42Z</time></trkpt>
<trkpt lat="47.36004353" lon="6.98884964"><ele>814.374023</ele><time>2006-06-29T16:35:59Z</time></trkpt>
<trkpt lat="47.36030102" lon="6.98769093"><ele>809.567383</ele><time>2006-06-29T16:36:46Z</time></trkpt>
<trkpt lat="47.36053705" lon="6.98618889"><ele>813.412842</ele><time>2006-06-29T16:37:53Z</time></trkpt>
<trkpt lat="47.35985041" lon="6.98485851"><ele>835.522949</ele><time>2006-06-29T16:38:18Z</time></trkpt>
<trkpt lat="47.36000061" lon="6.98455811"><ele>827.351807</ele><time>2006-06-29T16:38:30Z</time></trkpt>
<trkpt lat="47.36004353" lon="6.98434353"><ele>829.274414</ele><time>2006-06-29T16:38:43Z</time></trkpt>
<trkpt lat="47.36002207" lon="6.98438644"><ele>831.677734</ele><time>2006-06-29T16:40:01Z</time></trkpt>
<trkpt lat="47.36002207" lon="6.98382854"><ele>831.197266</ele><time>2006-06-29T16:40:11Z</time></trkpt>
<trkpt lat="47.36008644" lon="6.98071718"><ele>829.755127</ele><time>2006-06-29T16:40:45Z</time></trkpt>
<trkpt lat="47.35929251" lon="6.97801352"><ele>825.428955</ele><time>2006-06-29T16:40:55Z</time></trkpt>
<trkpt lat="47.35841274" lon="6.97468758"><ele>822.064453</ele><time>2006-06-29T16:41:18Z</time></trkpt>
<trkpt lat="47.35817671" lon="6.97352886"><ele>822.064453</ele><time>2006-06-29T16:41:35Z</time></trkpt>
<trkpt lat="47.35847712" lon="6.97346449"><ele>819.180664</ele><time>2006-06-29T16:41:47Z</time></trkpt>
<trkpt lat="47.35873461" lon="6.97301388"><ele>816.777344</ele><time>2006-06-29T16:42:02Z</time></trkpt>
<trkpt lat="47.35914230" lon="6.97249889"><ele>818.219238</ele><time>2006-06-29T16:42:18Z</time></trkpt>
<trkpt lat="47.36032248" lon="6.97067499"><ele>813.412842</ele><time>2006-06-29T16:42:57Z</time></trkpt>
<trkpt lat="47.36023664" lon="6.97018147"><ele>813.412842</ele><time>2006-06-29T16:43:04Z</time></trkpt>
<trkpt lat="47.35980749" lon="6.96966648"><ele>813.893311</ele><time>2006-06-29T16:43:19Z</time></trkpt>
<trkpt lat="47.35970020" lon="6.96945190"><ele>813.893311</ele><time>2006-06-29T16:43:29Z</time></trkpt>
<trkpt lat="47.36030102" lon="6.96947336"><ele>814.374023</ele><time>2006-06-29T16:44:06Z</time></trkpt>
<trkpt lat="47.36103058" lon="6.97005272"><ele>821.103271</ele><time>2006-06-29T16:44:56Z</time></trkpt>
<trkpt lat="47.36124516" lon="6.97037458"><ele>823.987061</ele><time>2006-06-29T16:45:13Z</time></trkpt>
<trkpt lat="47.36118078" lon="6.97071791"><ele>824.948486</ele><time>2006-06-29T16:45:26Z</time></trkpt>
<trkpt lat="47.36096621" lon="6.97118998"><ele>828.793945</ele><time>2006-06-29T16:45:44Z</time></trkpt>
<trkpt lat="47.36103058" lon="6.97129726"><ele>830.23584</ele><time>2006-06-29T16:45:52Z</time></trkpt>
<trkpt lat="47.36152411" lon="6.97084665"><ele>835.04248</ele><time>2006-06-29T16:46:19Z</time></trkpt>
<trkpt lat="47.36186743" lon="6.97067499"><ele>837.92627</ele><time>2006-06-29T16:46:38Z</time></trkpt>
<trkpt lat="47.36251116" lon="6.97054625"><ele>843.213379</ele><time>2006-06-29T16:47:19Z</time></trkpt>
<trkpt lat="47.36253262" lon="6.97050333"><ele>844.655518</ele><time>2006-06-29T16:47:30Z</time></trkpt>
<trkpt lat="47.36266136" lon="6.97050333"><ele>842.73291</ele><time>2006-06-29T16:48:13Z</time></trkpt>
<trkpt lat="47.36304760" lon="6.97037458"><ele>848.500732</ele><time>2006-06-29T16:48:33Z</time></trkpt>
<trkpt lat="47.36321926" lon="6.97024584"><ele>850.423584</ele><time>2006-06-29T16:48:46Z</time></trkpt>
<trkpt lat="47.36341238" lon="6.96998835"><ele>852.82666</ele><time>2006-06-29T16:49:01Z</time></trkpt>
<trkpt lat="47.36356258" lon="6.96973085"><ele>852.345947</ele><time>2006-06-29T16:49:13Z</time></trkpt>
<trkpt lat="47.36384153" lon="6.96938753"><ele>852.82666</ele><time>2006-06-29T16:49:33Z</time></trkpt>
<trkpt lat="47.36401320" lon="6.96970940"><ele>853.307373</ele><time>2006-06-29T16:49:51Z</time></trkpt>
<trkpt lat="47.36429214" lon="6.96979523"><ele>858.114014</ele><time>2006-06-29T16:50:03Z</time></trkpt>
<trkpt lat="47.36442089" lon="6.96960211"><ele>860.517334</ele><time>2006-06-29T16:50:11Z</time></trkpt>
<trkpt lat="47.36429214" lon="6.96934462"><ele>861.47876</ele><time>2006-06-29T16:50:27Z</time></trkpt>
<trkpt lat="47.36281157" lon="6.96857214"><ele>873.495117</ele><time>2006-06-29T16:51:42Z</time></trkpt>
<trkpt lat="47.36255407" lon="6.96816444"><ele>877.340576</ele><time>2006-06-29T16:51:52Z</time></trkpt>
<trkpt lat="47.36255407" lon="6.96805716"><ele>877.821045</ele><time>2006-06-29T16:51:54Z</time></trkpt>
<trkpt lat="47.36261845" lon="6.96782112"><ele>878.782471</ele><time>2006-06-29T16:51:58Z</time></trkpt>
<trkpt lat="47.36296177" lon="6.96694136"><ele>883.588867</ele><time>2006-06-29T16:52:14Z</time></trkpt>
<trkpt lat="47.36347675" lon="6.96573973"><ele>890.318115</ele><time>2006-06-29T16:52:41Z</time></trkpt>
<trkpt lat="47.36433506" lon="6.96387291"><ele>900.892578</ele><time>2006-06-29T16:53:26Z</time></trkpt>
<trkpt lat="47.36463547" lon="6.96331501"><ele>902.334473</ele><time>2006-06-29T16:53:39Z</time></trkpt>
<trkpt lat="47.36497879" lon="6.96303606"><ele>904.257324</ele><time>2006-06-29T16:53:51Z</time></trkpt>
<trkpt lat="47.36525774" lon="6.96290731"><ele>906.179688</ele><time>2006-06-29T16:54:02Z</time></trkpt>
<trkpt lat="47.36592293" lon="6.96269274"><ele>907.621826</ele><time>2006-06-29T16:54:25Z</time></trkpt>
<trkpt lat="47.36609459" lon="6.96224213"><ele>902.334473</ele><time>2006-06-29T16:54:34Z</time></trkpt>
<trkpt lat="47.36598730" lon="6.96121216"><ele>900.892578</ele><time>2006-06-29T16:54:44Z</time></trkpt>
<trkpt lat="47.36605167" lon="6.95934534"><ele>893.682861</ele><time>2006-06-29T16:54:56Z</time></trkpt>
<trkpt lat="47.36598730" lon="6.95872307"><ele>886.4729</ele><time>2006-06-29T16:55:01Z</time></trkpt>
<trkpt lat="47.36575127" lon="6.95814371"><ele>878.782471</ele><time>2006-06-29T16:55:08Z</time></trkpt>
<trkpt lat="47.36581564" lon="6.95775747"><ele>873.975586</ele><time>2006-06-29T16:55:12Z</time></trkpt>
<trkpt lat="47.36620188" lon="6.95773602"><ele>869.169189</ele><time>2006-06-29T16:55:16Z</time></trkpt>
<trkpt lat="47.36650229" lon="6.95784330"><ele>865.323975</ele><time>2006-06-29T16:55:19Z</time></trkpt>
<trkpt lat="47.36684561" lon="6.95835829"><ele>859.555908</ele><time>2006-06-29T16:55:24Z</time></trkpt>
<trkpt lat="47.36706018" lon="6.95833683"><ele>856.671875</ele><time>2006-06-29T16:55:27Z</time></trkpt>
<trkpt lat="47.36716747" lon="6.95799351"><ele>853.788086</ele><time>2006-06-29T16:55:30Z</time></trkpt>
<trkpt lat="47.36740351" lon="6.95696354"><ele>848.020264</ele><time>2006-06-29T16:55:41Z</time></trkpt>
<trkpt lat="47.36746788" lon="6.95664167"><ele>848.500732</ele><time>2006-06-29T16:55:45Z</time></trkpt>
<trkpt lat="47.36742496" lon="6.95569754"><ele>848.500732</ele><time>2006-06-29T16:55:59Z</time></trkpt>
<trkpt lat="47.36731768" lon="6.95498943"><ele>848.020264</ele><time>2006-06-29T16:56:11Z</time></trkpt>
<trkpt lat="47.36667395" lon="6.95273638"><ele>844.655518</ele><time>2006-06-29T16:56:48Z</time></trkpt>
<trkpt lat="47.36641645" lon="6.95074081"><ele>829.274414</ele><time>2006-06-29T16:57:06Z</time></trkpt>
<trkpt lat="47.36622334" lon="6.94988251"><ele>823.506592</ele><time>2006-06-29T16:57:13Z</time></trkpt>
<trkpt lat="47.36622334" lon="6.94958210"><ele>823.025879</ele><time>2006-06-29T16:57:16Z</time></trkpt>
<trkpt lat="47.36626625" lon="6.94943190"><ele>822.545166</ele><time>2006-06-29T16:57:18Z</time></trkpt>
<trkpt lat="47.36658812" lon="6.94958210"><ele>821.58374</ele><time>2006-06-29T16:57:24Z</time></trkpt>
<trkpt lat="47.36675978" lon="6.95026875"><ele>818.699951</ele><time>2006-06-29T16:57:31Z</time></trkpt>
<trkpt lat="47.36727476" lon="6.95114851"><ele>813.412842</ele><time>2006-06-29T16:57:40Z</time></trkpt>
<trkpt lat="47.36819744" lon="6.95237160"><ele>804.760742</ele><time>2006-06-29T16:57:52Z</time></trkpt>
<trkpt lat="47.36901283" lon="6.95355177"><ele>793.705566</ele><time>2006-06-29T16:58:02Z</time></trkpt>
<trkpt lat="47.36918449" lon="6.95438862"><ele>787.457031</ele><time>2006-06-29T16:58:07Z</time></trkpt>
<trkpt lat="47.36914158" lon="6.95507526"><ele>784.573242</ele><time>2006-06-29T16:58:11Z</time></trkpt>
<trkpt lat="47.36929178" lon="6.95548296"><ele>782.169922</ele><time>2006-06-29T16:58:16Z</time></trkpt>
<trkpt lat="47.36933470" lon="6.95550442"><ele>779.285645</ele><time>2006-06-29T16:58:26Z</time></trkpt>
<trkpt lat="47.36935616" lon="6.95561171"><ele>777.363281</ele><time>2006-06-29T16:59:03Z</time></trkpt>
<trkpt lat="47.36929178" lon="6.95627689"><ele>777.363281</ele><time>2006-06-29T16:59:13Z</time></trkpt>
<trkpt lat="47.36927032" lon="6.95689917"><ele>776.882568</ele><time>2006-06-29T16:59:20Z</time></trkpt>
<trkpt lat="47.37092257" lon="6.95829391"><ele>763.424072</ele><time>2006-06-29T16:59:36Z</time></trkpt>
<trkpt lat="47.37105131" lon="6.95852995"><ele>761.982178</ele><time>2006-06-29T16:59:38Z</time></trkpt>
<trkpt lat="47.37122297" lon="6.95906639"><ele>758.617432</ele><time>2006-06-29T16:59:42Z</time></trkpt>
<trkpt lat="47.37128735" lon="6.96050406"><ele>750.927002</ele><time>2006-06-29T16:59:51Z</time></trkpt>
<trkpt lat="47.37111568" lon="6.96112633"><ele>747.081543</ele><time>2006-06-29T16:59:55Z</time></trkpt>
<trkpt lat="47.37105131" lon="6.96213484"><ele>742.275146</ele><time>2006-06-29T17:00:01Z</time></trkpt>
<trkpt lat="47.37092257" lon="6.96288586"><ele>739.391113</ele><time>2006-06-29T17:00:06Z</time></trkpt>
<trkpt lat="47.37120152" lon="6.96393728"><ele>738.429932</ele><time>2006-06-29T17:00:14Z</time></trkpt>
<trkpt lat="47.37203836" lon="6.96672678"><ele>738.429932</ele><time>2006-06-29T17:00:36Z</time></trkpt>
<trkpt lat="47.36961365" lon="6.96586847"><ele>739.391113</ele><time>2006-06-29T17:00:49Z</time></trkpt>
<trkpt lat="47.36903429" lon="6.96629763"><ele>739.391113</ele><time>2006-06-29T17:01:05Z</time></trkpt>
<trkpt lat="47.36894846" lon="6.96679115"><ele>741.794434</ele><time>2006-06-29T17:01:16Z</time></trkpt>
<trkpt lat="47.36896992" lon="6.96747780"><ele>745.639648</ele><time>2006-06-29T17:01:29Z</time></trkpt>
<trkpt lat="47.36937761" lon="6.96863651"><ele>749.485107</ele><time>2006-06-29T17:01:53Z</time></trkpt>
<trkpt lat="47.36963511" lon="6.96928024"><ele>749.96582</ele><time>2006-06-29T17:02:08Z</time></trkpt>
<trkpt lat="47.36976385" lon="6.96925879"><ele>749.004395</ele><time>2006-06-29T17:02:13Z</time></trkpt>
<trkpt lat="47.36995697" lon="6.96915150"><ele>748.523682</ele><time>2006-06-29T17:02:18Z</time></trkpt>
<trkpt lat="47.37012863" lon="6.96917295"><ele>747.562256</ele><time>2006-06-29T17:02:22Z</time></trkpt>
<trkpt lat="47.37032175" lon="6.96925879"><ele>747.081543</ele><time>2006-06-29T17:02:26Z</time></trkpt>
<trkpt lat="47.37068653" lon="6.96964502"><ele>742.755859</ele><time>2006-06-29T17:02:35Z</time></trkpt>
<trkpt lat="47.37087965" lon="6.96996689"><ele>738.429932</ele><time>2006-06-29T17:02:40Z</time></trkpt>
<trkpt lat="47.37090111" lon="6.97037458"><ele>736.026611</ele><time>2006-06-29T17:02:44Z</time></trkpt>
<trkpt lat="47.37079382" lon="6.97097540"><ele>732.662109</ele><time>2006-06-29T17:02:50Z</time></trkpt>
<trkpt lat="47.37081528" lon="6.97140455"><ele>730.258545</ele><time>2006-06-29T17:02:54Z</time></trkpt>
<trkpt lat="47.37128735" lon="6.97385073"><ele>724.971436</ele><time>2006-06-29T17:03:18Z</time></trkpt>
<trkpt lat="47.37163067" lon="6.97406530"><ele>724.971436</ele><time>2006-06-29T17:03:24Z</time></trkpt>
<trkpt lat="47.37255335" lon="6.97434425"><ele>724.971436</ele><time>2006-06-29T17:03:39Z</time></trkpt>
<trkpt lat="47.37347603" lon="6.97518110"><ele>722.568115</ele><time>2006-06-29T17:03:51Z</time></trkpt>
<trkpt lat="47.37504244" lon="6.97844267"><ele>722.087402</ele><time>2006-06-29T17:04:28Z</time></trkpt>
<trkpt lat="47.37575054" lon="6.97689772"><ele>693.728516</ele><time>2006-06-29T17:05:04Z</time></trkpt>
<trkpt lat="47.37637281" lon="6.97988033"><ele>693.728516</ele><time>2006-06-29T17:05:50Z</time></trkpt>
<trkpt lat="47.37802505" lon="6.97932243"><ele>693.728516</ele><time>2006-06-29T17:06:17Z</time></trkpt>
<trkpt lat="47.37918377" lon="6.97670460"><ele>693.728516</ele><time>2006-06-29T17:06:26Z</time></trkpt>
<trkpt lat="47.37909794" lon="6.97736979"><ele>690.844482</ele><time>2006-06-29T17:06:29Z</time></trkpt>
<trkpt lat="47.37901211" lon="6.97760582"><ele>689.402588</ele><time>2006-06-29T17:06:33Z</time></trkpt>
<trkpt lat="47.37905502" lon="6.97784185"><ele>687.960693</ele><time>2006-06-29T17:06:35Z</time></trkpt>
<trkpt lat="47.37920523" lon="6.97773457"><ele>687.47998</ele><time>2006-06-29T17:06:37Z</time></trkpt>
<trkpt lat="47.38034248" lon="6.97515965"><ele>624.032959</ele><time>2006-06-29T17:09:48Z</time></trkpt>
<trkpt lat="47.38040686" lon="6.97513819"><ele>601.922607</ele><time>2006-06-29T17:10:09Z</time></trkpt>
<trkpt lat="47.38053560" lon="6.97535276"><ele>600</ele><time>2006-06-29T17:10:17Z</time></trkpt>
<trkpt lat="47.38087893" lon="6.97664022"><ele>599.519287</ele><time>2006-06-29T17:10:34Z</time></trkpt>
<trkpt lat="47.38128662" lon="6.97857141"><ele>599.519287</ele><time>2006-06-29T17:10:46Z</time></trkpt>
<trkpt lat="47.38152266" lon="6.97921515"><ele>599.519287</ele><time>2006-06-29T17:10:51Z</time></trkpt>
<trkpt lat="47.38145828" lon="6.97970867"><ele>597.59668</ele><time>2006-06-29T17:10:55Z</time></trkpt>
<trkpt lat="47.38180161" lon="6.98058844"><ele>596.635498</ele><time>2006-06-29T17:11:01Z</time></trkpt>
<trkpt lat="47.38235950" lon="6.98292732"><ele>594.712646</ele><time>2006-06-29T17:11:18Z</time></trkpt>
<trkpt lat="47.38218784" lon="6.98361397"><ele>592.790283</ele><time>2006-06-29T17:11:23Z</time></trkpt>
<trkpt lat="47.38220930" lon="6.98457956"><ele>585.580078</ele><time>2006-06-29T17:11:31Z</time></trkpt>
<trkpt lat="47.38231659" lon="6.98494434"><ele>583.176758</ele><time>2006-06-29T17:11:35Z</time></trkpt>
<trkpt lat="47.38244534" lon="6.98518038"><ele>582.696289</ele><time>2006-06-29T17:11:38Z</time></trkpt>
<trkpt lat="47.38296032" lon="6.98590994"><ele>574.044434</ele><time>2006-06-29T17:11:48Z</time></trkpt>
<trkpt lat="47.38334656" lon="6.98653221"><ele>568.276367</ele><time>2006-06-29T17:11:56Z</time></trkpt>
<trkpt lat="47.38424778" lon="6.98736906"><ele>566.834473</ele><time>2006-06-29T17:12:12Z</time></trkpt>
<trkpt lat="47.38547087" lon="6.98807716"><ele>561.547363</ele><time>2006-06-29T17:12:30Z</time></trkpt>
<trkpt lat="47.38622189" lon="6.98777676"><ele>555.298584</ele><time>2006-06-29T17:12:40Z</time></trkpt>
<trkpt lat="47.38669395" lon="6.98769093"><ele>552.414551</ele><time>2006-06-29T17:12:47Z</time></trkpt>
<trkpt lat="47.38744497" lon="6.98790550"><ele>547.127441</ele><time>2006-06-29T17:12:59Z</time></trkpt>
<trkpt lat="47.38800287" lon="6.98839903"><ele>541.84021</ele><time>2006-06-29T17:13:10Z</time></trkpt>
<trkpt lat="47.38875389" lon="6.98917150"><ele>534.630371</ele><time>2006-06-29T17:13:23Z</time></trkpt>
<trkpt lat="47.38944054" lon="6.98994398"><ele>526.459106</ele><time>2006-06-29T17:13:34Z</time></trkpt>
<trkpt lat="47.39094257" lon="6.99185371"><ele>508.674683</ele><time>2006-06-29T17:13:58Z</time></trkpt>
<trkpt lat="47.39107132" lon="6.99204683"><ele>506.752075</ele><time>2006-06-29T17:14:05Z</time></trkpt>
<trkpt lat="47.39115715" lon="6.99296951"><ele>504.348877</ele><time>2006-06-29T17:14:14Z</time></trkpt>
<trkpt lat="47.39098549" lon="6.99417114"><ele>501.464844</ele><time>2006-06-29T17:14:23Z</time></trkpt>
<trkpt lat="47.39107132" lon="6.99550152"><ele>500.022949</ele><time>2006-06-29T17:14:34Z</time></trkpt>
<trkpt lat="47.39137173" lon="6.99696064"><ele>499.061523</ele><time>2006-06-29T17:14:46Z</time></trkpt>
<trkpt lat="47.39167213" lon="6.99869871"><ele>496.177734</ele><time>2006-06-29T17:15:00Z</time></trkpt>
<trkpt lat="47.39156485" lon="6.99906349"><ele>496.177734</ele><time>2006-06-29T17:15:05Z</time></trkpt>
<trkpt lat="47.39154339" lon="6.99977160"><ele>496.177734</ele><time>2006-06-29T17:15:13Z</time></trkpt>
<trkpt lat="47.39162922" lon="7.00050116"><ele>497.138916</ele><time>2006-06-29T17:15:24Z</time></trkpt>
<trkpt lat="47.39173651" lon="7.00078011"><ele>497.138916</ele><time>2006-06-29T17:15:29Z</time></trkpt>
<trkpt lat="47.39201546" lon="7.00133801"><ele>497.619629</ele><time>2006-06-29T17:15:38Z</time></trkpt>
<trkpt lat="47.39248753" lon="7.00245380"><ele>496.658325</ele><time>2006-06-29T17:15:51Z</time></trkpt>
<trkpt lat="47.39278793" lon="7.00301170"><ele>494.735596</ele><time>2006-06-29T17:15:57Z</time></trkpt>
<trkpt lat="47.39368916" lon="7.00605869"><ele>493.293579</ele><time>2006-06-29T17:16:25Z</time></trkpt>
<trkpt lat="47.39431143" lon="7.00777531"><ele>491.851685</ele><time>2006-06-29T17:16:41Z</time></trkpt>
<trkpt lat="47.39587784" lon="7.01142311"><ele>488.487183</ele><time>2006-06-29T17:17:16Z</time></trkpt>
<trkpt lat="47.39658594" lon="7.01316118"><ele>486.564453</ele><time>2006-06-29T17:17:34Z</time></trkpt>
<trkpt lat="47.39686489" lon="7.01442719"><ele>484.161133</ele><time>2006-06-29T17:17:45Z</time></trkpt>
<trkpt lat="47.39686489" lon="7.01526403"><ele>480.796631</ele><time>2006-06-29T17:17:52Z</time></trkpt>
<trkpt lat="47.39680052" lon="7.01539278"><ele>475.989868</ele><time>2006-06-29T17:18:44Z</time></trkpt>
<trkpt lat="47.39690781" lon="7.01577902"><ele>476.470581</ele><time>2006-06-29T17:18:53Z</time></trkpt>
<trkpt lat="47.39725113" lon="7.01655149"><ele>475.509277</ele><time>2006-06-29T17:19:02Z</time></trkpt>
<trkpt lat="47.39768028" lon="7.01730251"><ele>474.547974</ele><time>2006-06-29T17:19:13Z</time></trkpt>
<trkpt lat="47.39787340" lon="7.01816082"><ele>473.106079</ele><time>2006-06-29T17:19:23Z</time></trkpt>
<trkpt lat="47.39798069" lon="7.01936245"><ele>469.741333</ele><time>2006-06-29T17:19:32Z</time></trkpt>
<trkpt lat="47.39791632" lon="7.02088594"><ele>467.338135</ele><time>2006-06-29T17:19:42Z</time></trkpt>
<trkpt lat="47.39770174" lon="7.02206612"><ele>466.857422</ele><time>2006-06-29T17:19:51Z</time></trkpt>
<trkpt lat="47.39750862" lon="7.02346087"><ele>466.376709</ele><time>2006-06-29T17:20:04Z</time></trkpt>
<trkpt lat="47.39753008" lon="7.02464104"><ele>464.934814</ele><time>2006-06-29T17:20:16Z</time></trkpt>
<trkpt lat="47.39780903" lon="7.02517748"><ele>464.934814</ele><time>2006-06-29T17:20:22Z</time></trkpt>
<trkpt lat="47.39813089" lon="7.02547789"><ele>464.454102</ele><time>2006-06-29T17:20:27Z</time></trkpt>
<trkpt lat="47.39834547" lon="7.02610016"><ele>464.934814</ele><time>2006-06-29T17:20:34Z</time></trkpt>
<trkpt lat="47.39800215" lon="7.02770948"><ele>464.934814</ele><time>2006-06-29T17:20:50Z</time></trkpt>
<trkpt lat="47.39757299" lon="7.02912569"><ele>464.934814</ele><time>2006-06-29T17:21:04Z</time></trkpt>
<trkpt lat="47.39757299" lon="7.03017712"><ele>463.973389</ele><time>2006-06-29T17:21:13Z</time></trkpt>
<trkpt lat="47.39789486" lon="7.03105688"><ele>463.012085</ele><time>2006-06-29T17:21:22Z</time></trkpt>
<trkpt lat="47.39853859" lon="7.03200102"><ele>461.089478</ele><time>2006-06-29T17:21:34Z</time></trkpt>
<trkpt lat="47.39989042" lon="7.03363180"><ele>459.647583</ele><time>2006-06-29T17:21:56Z</time></trkpt>
<trkpt lat="47.40102768" lon="7.03519821"><ele>457.244263</ele><time>2006-06-29T17:22:15Z</time></trkpt>
<trkpt lat="47.40147829" lon="7.03648567"><ele>456.76355</ele><time>2006-06-29T17:22:27Z</time></trkpt>
<trkpt lat="47.40192890" lon="7.03820229"><ele>457.724976</ele><time>2006-06-29T17:22:42Z</time></trkpt>
<trkpt lat="47.40214348" lon="7.03858852"><ele>457.244263</ele><time>2006-06-29T17:22:46Z</time></trkpt>
<trkpt lat="47.40291595" lon="7.03929663"><ele>455.802246</ele><time>2006-06-29T17:22:57Z</time></trkpt>
<trkpt lat="47.40304470" lon="7.03944683"><ele>454.84082</ele><time>2006-06-29T17:22:59Z</time></trkpt>
<trkpt lat="47.40343094" lon="7.04047680"><ele>454.360229</ele><time>2006-06-29T17:23:10Z</time></trkpt>
<trkpt lat="47.40394592" lon="7.04281569"><ele>451.476318</ele><time>2006-06-29T17:23:32Z</time></trkpt>
<trkpt lat="47.40443945" lon="7.04343796"><ele>449.553711</ele><time>2006-06-29T17:23:41Z</time></trkpt>
<trkpt lat="47.40521193" lon="7.04414606"><ele>448.592407</ele><time>2006-06-29T17:23:54Z</time></trkpt>
<trkpt lat="47.40576982" lon="7.04509020"><ele>446.669678</ele><time>2006-06-29T17:24:06Z</time></trkpt>
<trkpt lat="47.40849495" lon="7.05017567"><ele>444.74707</ele><time>2006-06-29T17:25:07Z</time></trkpt>
<trkpt lat="47.40933180" lon="7.05167770"><ele>444.266479</ele><time>2006-06-29T17:25:26Z</time></trkpt>
<trkpt lat="47.41021156" lon="7.05339432"><ele>443.785767</ele><time>2006-06-29T17:25:47Z</time></trkpt>
<trkpt lat="47.41175652" lon="7.05867290"><ele>438.979126</ele><time>2006-06-29T17:26:45Z</time></trkpt>
<trkpt lat="47.41175652" lon="7.05897331"><ele>439.459717</ele><time>2006-06-29T17:26:51Z</time></trkpt>
<trkpt lat="47.41184235" lon="7.05916643"><ele>439.459717</ele><time>2006-06-29T17:26:54Z</time></trkpt>
<trkpt lat="47.41203547" lon="7.05996037"><ele>437.537109</ele><time>2006-06-29T17:27:03Z</time></trkpt>
<trkpt lat="47.41231441" lon="7.06354380"><ele>437.056519</ele><time>2006-06-29T17:27:37Z</time></trkpt>
<trkpt lat="47.41300106" lon="7.06751347"><ele>436.575928</ele><time>2006-06-29T17:28:22Z</time></trkpt>
<trkpt lat="47.41300106" lon="7.06789970"><ele>436.575928</ele><time>2006-06-29T17:28:27Z</time></trkpt>
<trkpt lat="47.41312981" lon="7.06897259"><ele>437.537109</ele><time>2006-06-29T17:28:41Z</time></trkpt>
<trkpt lat="47.41403103" lon="7.07332850"><ele>441.382446</ele><time>2006-06-29T17:29:39Z</time></trkpt>
<trkpt lat="47.41430998" lon="7.07412243"><ele>443.785767</ele><time>2006-06-29T17:29:55Z</time></trkpt>
<trkpt lat="47.41465330" lon="7.07487345"><ele>445.708374</ele><time>2006-06-29T17:30:12Z</time></trkpt>
<trkpt lat="47.41480350" lon="7.07540989"><ele>447.630981</ele><time>2006-06-29T17:30:25Z</time></trkpt>
<trkpt lat="47.41503954" lon="7.07586050"><ele>447.630981</ele><time>2006-06-29T17:30:39Z</time></trkpt>
</trkseg></trk></gpx>